Time;durP1;ratioP1;P1;durP2;ratioP2;P2;SDS_P1;SDS_P2;PMS_P1;PMS_P2;Temp;Humidity;BMP_temperature;BMP_pressure;BME280_temperature;BME280_humidity;BME280_pressure;Samples;Min_cycle;Max_cycle;Signal;HPM_P1;HPM_P2
2023/09/18 00:00:56;;;;;;;6.75;5.78;;;21.30;54.60;;;;;;5027847;28;114060;-78
2023/09/18 00:03:26;;;;;;;6.00;5.40;;;21.30;54.70;;;;;;5028425;28;114482;-76
2023/09/18 00:05:53;;;;;;;7.95;6.40;;;21.30;54.80;;;;;;5008001;28;118030;-76
2023/09/18 00:08:20;;;;;;;7.13;6.20;;;21.30;54.80;;;;;;5026538;28;115180;-77
2023/09/18 00:10:49;;;;;;;7.95;6.15;;;21.30;54.70;;;;;;5027166;28;114082;-78
2023/09/18 00:13:16;;;;;;;6.40;5.70;;;21.30;54.70;;;;;;5027263;28;114248;-77
2023/09/18 00:15:47;;;;;;;8.27;6.22;;;21.30;54.70;;;;;;5026116;28;116023;-78
2023/09/18 00:18:15;;;;;;;7.10;6.38;;;21.30;54.70;;;;;;5026026;28;114596;-77
2023/09/18 00:20:43;;;;;;;6.90;6.20;;;21.30;54.60;;;;;;5027236;28;114248;-78
2023/09/18 00:23:12;;;;;;;8.73;7.93;;;21.30;54.70;;;;;;5027206;28;114148;-78
2023/09/18 00:25:42;;;;;;;8.63;6.10;;;21.30;54.70;;;;;;5008116;28;114998;-77
2023/09/18 00:28:10;;;;;;;7.10;6.40;;;21.30;54.80;;;;;;5026803;28;114935;-78
2023/09/18 00:30:38;;;;;;;8.52;7.72;;;21.30;54.80;;;;;;5009984;28;114057;-78
2023/09/18 00:33:05;;;;;;;7.05;5.75;;;21.20;54.90;;;;;;5009351;28;114491;-78
2023/09/18 00:35:32;;;;;;;7.13;6.43;;;21.20;55.00;;;;;;5025634;28;114948;-78
2023/09/18 00:38:03;;;;;;;7.05;6.30;;;21.20;55.00;;;;;;4991129;28;114772;-78
2023/09/18 00:40:30;;;;;;;7.40;6.47;;;21.20;55.00;;;;;;4993195;28;114110;-78
2023/09/18 00:42:57;;;;;;;7.25;6.53;;;21.20;55.00;;;;;;5009099;28;114221;-78
2023/09/18 00:45:24;;;;;;;8.75;7.82;;;21.20;55.00;;;;;;5008151;28;114892;-77
2023/09/18 00:47:51;;;;;;;9.85;8.10;;;21.20;55.00;;;;;;5025833;28;114598;-78
2023/09/18 00:50:18;;;;;;;7.20;6.50;;;21.10;55.00;;;;;;5009096;28;114208;-77
2023/09/18 00:52:46;;;;;;;8.43;6.97;;;21.00;55.20;;;;;;4976396;28;114394;-78
2023/09/18 00:55:13;;;;;;;10.05;8.95;;;21.00;55.30;;;;;;5007330;28;115455;-77
2023/09/18 00:57:40;;;;;;;8.07;7.32;;;21.00;55.20;;;;;;5008020;28;114687;-77
2023/09/18 01:00:08;;;;;;;8.95;6.75;;;20.90;55.40;;;;;;5026166;28;114447;-77
2023/09/18 01:02:35;;;;;;;10.32;9.32;;;21.00;55.40;;;;;;5009234;28;114198;-77
2023/09/18 01:05:03;;;;;;;8.95;7.93;;;21.00;55.30;;;;;;4991145;28;116028;-77
2023/09/18 01:07:32;;;;;;;10.05;8.98;;;20.80;55.50;;;;;;5025838;28;114564;-77
2023/09/18 01:09:59;;;;;;;8.85;7.95;;;20.70;55.90;;;;;;5009007;28;114190;-77
2023/09/18 01:12:59;;;;;;;7.80;7.00;;;20.60;56.20;;;;;;5009052;28;114479;-77
2023/09/18 01:15:32;;;;;;;10.00;8.48;;;20.70;56.20;;;;;;5003062;28;115065;-78
2023/09/18 01:17:59;;;;;;;9.23;8.32;;;20.70;56.40;;;;;;5026327;28;114866;-77
2023/09/18 01:20:27;;;;;;;11.77;10.63;;;20.70;56.20;;;;;;5008863;28;114050;-77
2023/09/18 01:22:54;;;;;;;12.07;10.88;;;20.70;56.30;;;;;;5027063;28;114312;-77
2023/09/18 01:25:21;;;;;;;13.10;11.52;;;20.50;56.60;;;;;;4990747;28;116145;-76
2023/09/18 01:27:49;;;;;;;11.25;10.07;;;20.40;57.00;;;;;;5025577;28;114814;-78
2023/09/18 01:30:17;;;;;;;11.93;10.80;;;20.30;57.20;;;;;;5026592;28;114204;-78
2023/09/18 01:32:44;;;;;;;11.75;9.45;;;20.20;57.40;;;;;;5026523;28;114355;-78
2023/09/18 01:35:11;;;;;;;10.73;9.63;;;20.20;57.60;;;;;;5007760;28;114917;-78
2023/09/18 01:37:39;;;;;;;12.00;10.80;;;20.30;57.40;;;;;;5025488;28;115173;-78
2023/09/18 01:40:07;;;;;;;8.85;7.82;;;20.30;57.50;;;;;;4992033;28;114303;-78
2023/09/18 01:42:35;;;;;;;12.50;11.23;;;20.30;57.40;;;;;;5008637;28;114453;-78
2023/09/18 01:45:02;;;;;;;11.68;10.48;;;20.30;57.50;;;;;;5007280;28;115724;-77
2023/09/18 01:47:31;;;;;;;11.77;10.57;;;20.30;57.50;;;;;;5007975;27;114617;-78
2023/09/18 01:49:58;;;;;;;12.93;11.73;;;20.30;57.70;;;;;;5010231;28;114231;-78
2023/09/18 01:52:26;;;;;;;13.43;12.02;;;20.20;57.90;;;;;;5011848;28;114416;-77
2023/09/18 01:54:53;;;;;;;14.32;12.93;;;20.10;58.10;;;;;;5028694;28;114996;-77
2023/09/18 01:57:20;;;;;;;11.90;10.70;;;20.00;58.40;;;;;;5028778;28;114737;-78
2023/09/18 01:59:47;;;;;;;13.18;11.77;;;19.80;58.80;;;;;;5011681;28;114477;-77
2023/09/18 02:02:15;;;;;;;14.23;12.73;;;19.80;59.20;;;;;;5012133;28;114359;-77
2023/09/18 02:04:53;;;;;;;13.32;12.07;;;19.70;59.50;;;;;;5029122;28;115506;-77
2023/09/18 02:07:35;;;;;;;13.23;11.85;;;19.50;59.70;;;;;;5010755;28;114624;-78
2023/09/18 02:10:03;;;;;;;14.30;12.85;;;19.40;59.90;;;;;;5028758;28;114287;-78
2023/09/18 02:12:30;;;;;;;12.88;11.57;;;19.40;60.00;;;;;;5010405;28;114248;-78
2023/09/18 02:15:06;;;;;;;13.25;12.05;;;19.40;60.10;;;;;;5028013;28;115240;-78
2023/09/18 02:17:33;;;;;;;14.18;12.60;;;19.50;60.00;;;;;;5010770;28;114647;-77
2023/09/18 02:20:04;;;;;;;14.65;13.10;;;19.50;60.00;;;;;;5028898;28;114410;-77
2023/09/18 02:22:32;;;;;;;13.70;12.40;;;19.60;60.00;;;;;;5011043;28;115070;-78
2023/09/18 02:24:59;;;;;;;14.02;12.73;;;19.40;60.10;;;;;;4993673;28;114936;-77
2023/09/18 02:27:27;;;;;;;14.38;12.88;;;19.30;60.40;;;;;;4993859;28;114683;-77
2023/09/18 02:29:54;;;;;;;15.20;13.20;;;19.30;60.70;;;;;;4994633;28;114158;-79
2023/09/18 02:32:21;;;;;;;14.95;13.48;;;19.20;60.80;;;;;;5011296;28;114163;-77
2023/09/18 02:34:48;;;;;;;13.55;12.13;;;19.20;60.80;;;;;;5028016;28;114855;-78
2023/09/18 02:37:15;;;;;;;14.20;12.82;;;19.10;61.10;;;;;;5009904;28;114708;-77
2023/09/18 02:39:42;;;;;;;14.80;13.40;;;19.10;61.20;;;;;;5010811;28;114420;-76
2023/09/18 02:42:09;;;;;;;13.55;12.18;;;19.00;61.40;;;;;;5011608;28;114295;-78
2023/09/18 02:44:37;;;;;;;15.27;13.25;;;19.00;61.50;;;;;;4994335;28;115039;-78
2023/09/18 02:47:04;;;;;;;16.20;14.70;;;19.00;61.70;;;;;;5009889;28;114898;-77
2023/09/18 02:49:33;;;;;;;13.90;12.55;;;19.00;61.90;;;;;;4994299;28;114309;-78
2023/09/18 02:52:00;;;;;;;15.65;14.05;;;19.00;61.80;;;;;;5010861;28;114376;-78
2023/09/18 02:54:27;;;;;;;15.13;13.05;;;19.20;61.60;;;;;;5010073;28;114813;-78
2023/09/18 02:56:54;;;;;;;15.35;13.82;;;19.20;61.60;;;;;;5028086;28;114643;-77
2023/09/18 02:59:21;;;;;;;16.08;14.48;;;19.10;61.70;;;;;;4976948;27;114333;-77
2023/09/18 03:01:48;;;;;;;15.05;13.55;;;19.10;61.70;;;;;;5011018;28;114289;-79
2023/09/18 03:04:15;;;;;;;15.60;14.07;;;19.20;61.70;;;;;;4992882;28;114412;-78
2023/09/18 03:06:42;;;;;;;15.02;13.48;;;19.20;61.70;;;;;;4993048;28;114651;-78
2023/09/18 03:09:10;;;;;;;14.88;13.38;;;19.20;61.60;;;;;;5010589;28;114164;-78
2023/09/18 03:11:37;;;;;;;14.48;12.85;;;19.30;61.60;;;;;;5010840;28;114037;-77
2023/09/18 03:14:04;;;;;;;14.68;13.10;;;19.20;61.60;;;;;;5027471;28;114916;-77
2023/09/18 03:16:33;;;;;;;13.98;12.57;;;19.20;61.60;;;;;;5009346;28;114642;-78
2023/09/18 03:19:00;;;;;;;14.82;13.32;;;19.30;61.50;;;;;;5009715;28;114181;-78
2023/09/18 03:21:30;;;;;;;18.08;14.95;;;19.20;61.60;;;;;;4994037;28;114272;-77
2023/09/18 03:23:58;;;;;;;14.55;13.05;;;19.20;61.70;;;;;;5027143;28;114840;-78
2023/09/18 03:26:25;;;;;;;16.23;14.32;;;19.10;61.60;;;;;;5027049;28;114740;-76
2023/09/18 03:28:52;;;;;;;15.18;13.57;;;19.10;61.80;;;;;;5009841;28;114622;-77
2023/09/18 03:31:19;;;;;;;15.27;13.68;;;19.10;61.90;;;;;;5010719;28;114321;-77
2023/09/18 03:33:46;;;;;;;15.00;13.50;;;19.10;62.00;;;;;;5009231;28;115648;-78
2023/09/18 03:36:14;;;;;;;14.90;13.50;;;19.00;62.00;;;;;;5026148;28;114929;-77
2023/09/18 03:38:41;;;;;;;14.75;13.35;;;19.00;62.10;;;;;;5027890;28;114308;-77
2023/09/18 03:41:09;;;;;;;15.10;13.68;;;19.00;62.20;;;;;;5008589;28;114320;-78
2023/09/18 03:43:36;;;;;;;14.50;13.02;;;18.90;62.30;;;;;;5008947;28;114890;-77
2023/09/18 03:46:06;;;;;;;14.85;13.38;;;18.90;62.40;;;;;;4992830;28;114803;-78
2023/09/18 03:48:43;;;;;;;15.68;14.07;;;18.90;62.50;;;;;;4994569;28;114505;-77
2023/09/18 03:51:15;;;;;;;14.80;13.27;;;18.80;62.60;;;;;;5009841;28;114266;-78
2023/09/18 03:53:43;;;;;;;15.63;13.98;;;18.90;62.60;;;;;;5026215;28;117586;-77
2023/09/18 03:56:10;;;;;;;15.82;14.25;;;18.80;62.60;;;;;;4992679;28;114597;-78
2023/09/18 03:58:37;;;;;;;15.55;13.88;;;18.80;62.90;;;;;;5027771;28;114266;-79
2023/09/18 04:01:04;;;;;;;16.00;14.48;;;18.70;62.90;;;;;;5009901;28;114130;-76
2023/09/18 04:03:32;;;;;;;15.88;14.27;;;18.70;62.90;;;;;;5008531;28;114835;-76
2023/09/18 04:05:59;;;;;;;15.55;13.95;;;18.80;62.90;;;;;;5026144;28;115954;-76
2023/09/18 04:08:26;;;;;;;16.02;14.40;;;18.80;62.90;;;;;;5008670;28;114378;-77
2023/09/18 04:10:55;;;;;;;16.05;14.55;;;18.70;63.00;;;;;;5026349;28;114427;-76
2023/09/18 04:13:24;;;;;;;15.52;13.93;;;18.70;63.10;;;;;;5007493;28;116053;-76
2023/09/18 04:15:56;;;;;;;16.48;14.88;;;18.70;63.10;;;;;;5008593;28;115052;-76
2023/09/18 04:18:24;;;;;;;16.00;14.40;;;18.80;63.10;;;;;;4988631;28;114327;-77
2023/09/18 04:20:51;;;;;;;15.25;13.68;;;18.80;63.10;;;;;;5005051;28;114416;-77
2023/09/18 04:23:21;;;;;;;16.17;14.57;;;18.70;63.10;;;;;;4988514;28;114892;-77
2023/09/18 04:25:49;;;;;;;16.40;14.68;;;18.70;63.20;;;;;;4988836;28;114624;-77
2023/09/18 04:28:18;;;;;;;15.48;13.98;;;18.70;63.30;;;;;;5006157;28;114352;-77
2023/09/18 04:30:48;;;;;;;15.77;14.15;;;18.70;63.30;;;;;;4990136;28;114173;-77
2023/09/18 04:33:15;;;;;;;15.88;14.27;;;18.60;63.40;;;;;;5004817;28;114955;-77
2023/09/18 04:35:43;;;;;;;15.20;13.63;;;18.70;63.40;;;;;;4988914;28;114572;-77
2023/09/18 04:38:11;;;;;;;16.92;14.82;;;18.70;63.40;;;;;;4989406;28;114344;-77
2023/09/18 04:40:38;;;;;;;16.85;14.98;;;18.70;63.40;;;;;;4973080;28;114250;-77
2023/09/18 04:43:08;;;;;;;16.17;14.48;;;18.80;63.30;;;;;;4987649;28;115946;-76
2023/09/18 04:45:35;;;;;;;16.25;13.93;;;18.70;63.30;;;;;;5004411;28;115989;-77
2023/09/18 04:48:05;;;;;;;15.30;13.20;;;18.70;63.30;;;;;;5006786;28;114139;-77
2023/09/18 04:50:33;;;;;;;16.20;14.60;;;18.80;63.40;;;;;;4989292;28;115082;-77
2023/09/18 04:53:01;;;;;;;15.13;13.63;;;18.70;63.40;;;;;;5004892;28;115454;-78
2023/09/18 04:55:28;;;;;;;15.05;13.50;;;18.70;63.40;;;;;;5005703;28;116044;-78
2023/09/18 04:57:58;;;;;;;15.40;13.88;;;18.80;63.30;;;;;;5006745;28;114350;-77
2023/09/18 05:00:26;;;;;;;15.38;13.68;;;18.80;63.20;;;;;;5005580;28;114500;-78
2023/09/18 05:02:53;;;;;;;15.13;13.52;;;19.00;62.90;;;;;;4971405;28;115310;-77
2023/09/18 05:05:21;;;;;;;16.40;14.70;;;19.00;62.70;;;;;;4987631;28;116686;-78
2023/09/18 05:07:48;;;;;;;15.32;13.77;;;19.20;62.30;;;;;;5004875;28;114512;-78
2023/09/18 05:10:15;;;;;;;16.38;13.93;;;19.20;62.20;;;;;;5006811;28;114295;-78
2023/09/18 05:12:42;;;;;;;14.80;12.73;;;19.20;62.00;;;;;;5005690;28;114916;-78
2023/09/18 05:15:10;;;;;;;15.38;13.77;;;19.30;61.90;;;;;;5005226;28;116755;-76
2023/09/18 05:17:42;;;;;;;15.60;14.10;;;19.30;61.70;;;;;;5005079;28;114563;-76
2023/09/18 05:20:15;;;;;;;15.48;13.32;;;19.30;61.50;;;;;;5005504;28;114230;-78
2023/09/18 05:22:43;;;;;;;14.63;13.20;;;19.30;61.40;;;;;;5005582;28;115420;-77
2023/09/18 05:25:10;;;;;;;16.30;12.88;;;19.40;61.40;;;;;;5012439;28;114855;-76
2023/09/18 05:27:44;;;;;;;13.88;12.55;;;19.60;61.10;;;;;;5013241;28;114467;-77
2023/09/18 05:30:15;;;;;;;15.75;14.15;;;19.80;60.70;;;;;;5013005;28;114320;-77
2023/09/18 05:32:43;;;;;;;16.63;13.43;;;19.90;60.30;;;;;;4961092;28;117873;-77
2023/09/18 05:35:12;;;;;;;14.95;13.48;;;19.90;60.20;;;;;;5012045;28;115081;-78
2023/09/18 05:37:41;;;;;;;15.20;13.52;;;20.10;60.00;;;;;;5011937;28;114387;-78
2023/09/18 05:40:09;;;;;;;15.00;13.50;;;20.20;59.60;;;;;;5011763;28;115211;-77
2023/09/18 05:42:45;;;;;;;15.77;13.98;;;20.30;59.50;;;;;;5010366;28;116031;-77
2023/09/18 05:45:13;;;;;;;14.90;13.40;;;20.30;59.20;;;;;;5011500;28;114740;-77
2023/09/18 05:47:42;;;;;;;15.18;13.77;;;20.30;59.20;;;;;;5012300;28;114251;-78
2023/09/18 05:50:14;;;;;;;14.85;13.43;;;20.40;59.20;;;;;;5012222;28;114198;-77
2023/09/18 05:52:42;;;;;;;14.98;13.48;;;20.40;59.20;;;;;;5011784;28;114981;-77
2023/09/18 05:55:10;;;;;;;15.02;13.52;;;20.60;58.80;;;;;;5011584;28;114735;-78
2023/09/18 05:57:37;;;;;;;15.05;13.52;;;20.70;58.50;;;;;;4977529;28;114319;-79
2023/09/18 06:00:05;;;;;;;14.82;13.32;;;20.80;58.20;;;;;;5011703;28;114297;-78
2023/09/18 06:02:39;;;;;;;15.23;13.32;;;20.90;57.90;;;;;;5011664;28;114885;-77
2023/09/18 06:05:07;;;;;;;14.73;13.23;;;21.10;57.80;;;;;;5011297;28;114787;-78
2023/09/18 06:07:34;;;;;;;14.70;13.27;;;21.30;57.20;;;;;;4993762;28;114218;-77
2023/09/18 06:10:01;;;;;;;14.15;12.50;;;21.30;57.00;;;;;;5012308;28;114177;-78
2023/09/18 06:12:29;;;;;;;13.73;12.48;;;21.50;56.60;;;;;;4993493;28;114881;-78
2023/09/18 06:14:57;;;;;;;14.43;13.05;;;21.70;56.10;;;;;;5010363;28;116178;-78
2023/09/18 06:17:24;;;;;;;14.30;12.95;;;21.80;56.10;;;;;;5015743;28;114309;-77
2023/09/18 06:19:52;;;;;;;14.88;13.27;;;21.90;55.50;;;;;;5032121;28;114252;-77
2023/09/18 06:22:19;;;;;;;14.80;13.35;;;22.00;55.40;;;;;;4996522;28;114962;-77
2023/09/18 06:24:46;;;;;;;15.50;13.90;;;22.00;55.00;;;;;;4996809;28;115114;-78
2023/09/18 06:27:13;;;;;;;15.35;13.75;;;22.00;55.10;;;;;;5014436;28;114447;-78
2023/09/18 06:29:42;;;;;;;14.80;13.40;;;22.10;54.90;;;;;;5032196;28;114002;-77
2023/09/18 06:32:09;;;;;;;14.68;13.30;;;22.10;54.70;;;;;;4997284;28;115557;-77
2023/09/18 06:34:36;;;;;;;14.60;13.10;;;22.20;54.60;;;;;;5029288;28;114637;-78
2023/09/18 06:37:06;;;;;;;16.50;14.13;;;22.30;54.60;;;;;;5028907;28;114371;-76
2023/09/18 06:39:33;;;;;;;15.27;13.77;;;22.40;53.90;;;;;;5028196;28;114252;-77
2023/09/18 06:42:00;;;;;;;17.77;14.13;;;22.30;53.80;;;;;;5009913;28;114949;-77
2023/09/18 06:44:27;;;;;;;15.68;14.07;;;22.30;54.00;;;;;;5009674;28;117473;-78
2023/09/18 06:46:54;;;;;;;15.95;13.73;;;22.30;54.20;;;;;;5010251;28;114243;-77
2023/09/18 06:49:21;;;;;;;15.05;13.43;;;22.30;53.80;;;;;;4993715;28;114287;-78
2023/09/18 06:51:48;;;;;;;16.33;13.60;;;22.40;53.90;;;;;;5009640;28;116759;-77
2023/09/18 06:54:15;;;;;;;15.30;13.70;;;22.50;53.70;;;;;;5027864;28;114688;-78
2023/09/18 06:56:44;;;;;;;15.35;13.48;;;22.60;53.80;;;;;;4994090;28;114436;-78
2023/09/18 06:59:11;;;;;;;14.27;12.88;;;22.70;53.60;;;;;;5010815;28;114266;-79
2023/09/18 07:01:41;;;;;;;15.85;14.23;;;22.80;53.20;;;;;;5009877;28;114858;-77
2023/09/18 07:04:08;;;;;;;16.58;13.60;;;22.70;53.20;;;;;;5028048;28;114613;-78
2023/09/18 07:06:36;;;;;;;17.90;14.80;;;22.70;53.30;;;;;;4977634;28;114528;-76
2023/09/18 07:09:06;;;;;;;15.43;13.82;;;22.70;53.50;;;;;;5028735;28;114683;-78
2023/09/18 07:11:34;;;;;;;14.55;11.88;;;22.70;53.60;;;;;;5027101;28;114844;-78
2023/09/18 07:14:06;;;;;;;15.05;13.45;;;22.80;53.30;;;;;;4993000;28;117059;-78
2023/09/18 07:16:34;;;;;;;15.73;14.23;;;22.80;53.10;;;;;;5011860;28;114100;-78
2023/09/18 07:19:04;;;;;;;14.20;12.55;;;22.70;53.60;;;;;;5027192;28;114407;-76
2023/09/18 07:21:31;;;;;;;16.63;13.90;;;22.80;53.20;;;;;;5027623;28;114927;-78
2023/09/18 07:23:58;;;;;;;16.13;14.57;;;22.80;53.10;;;;;;5027623;28;114462;-79
2023/09/18 07:26:25;;;;;;;14.85;13.32;;;22.80;53.10;;;;;;5028354;28;114157;-77
2023/09/18 07:28:52;;;;;;;15.73;14.13;;;22.90;53.00;;;;;;4993857;28;114127;-77
2023/09/18 07:31:20;;;;;;;15.23;13.73;;;23.00;52.70;;;;;;5027611;28;115292;-77
2023/09/18 07:33:48;;;;;;;16.65;13.57;;;23.00;52.70;;;;;;5026983;28;116507;-79
2023/09/18 07:36:15;;;;;;;16.95;14.35;;;23.00;52.30;;;;;;5027563;28;114146;-78
2023/09/18 07:38:43;;;;;;;15.30;13.77;;;22.80;52.80;;;;;;5027613;28;114483;-77
2023/09/18 07:41:10;;;;;;;15.43;13.77;;;22.90;52.90;;;;;;5027243;28;115420;-78
2023/09/18 07:43:39;;;;;;;15.75;14.05;;;23.00;52.70;;;;;;5009361;28;115211;-77
2023/09/18 07:46:06;;;;;;;14.95;13.43;;;23.00;52.60;;;;;;5027410;28;114104;-77
2023/09/18 07:48:34;;;;;;;15.30;13.85;;;23.20;52.60;;;;;;5027907;28;114037;-78
2023/09/18 07:51:02;;;;;;;15.50;14.05;;;23.30;52.40;;;;;;5027203;28;115155;-78
2023/09/18 07:53:29;;;;;;;15.88;14.27;;;23.40;52.10;;;;;;5009436;28;115168;-77
2023/09/18 07:55:58;;;;;;;15.50;13.82;;;23.40;51.70;;;;;;5027928;28;114412;-77
2023/09/18 07:58:29;;;;;;;15.48;13.98;;;23.60;51.80;;;;;;4993984;28;114123;-77
2023/09/18 08:00:57;;;;;;;15.73;13.77;;;23.70;51.70;;;;;;5009466;28;114812;-78
2023/09/18 08:03:25;;;;;;;17.75;15.00;;;23.70;51.30;;;;;;5008298;28;117236;-78
2023/09/18 08:05:53;;;;;;;15.85;14.30;;;23.70;51.00;;;;;;4993342;28;114400;-78
2023/09/18 08:08:20;;;;;;;16.25;14.65;;;23.70;51.10;;;;;;5027521;28;114360;-77
2023/09/18 08:10:48;;;;;;;15.77;14.27;;;23.80;51.20;;;;;;4992627;28;114380;-78
2023/09/18 08:13:15;;;;;;;20.33;14.65;;;23.80;50.70;;;;;;5009050;28;114566;-79
2023/09/18 08:15:43;;;;;;;15.20;13.68;;;23.90;50.80;;;;;;5026479;28;114067;-79
2023/09/18 08:18:10;;;;;;;15.68;14.00;;;24.00;50.60;;;;;;5008917;28;114330;-78
2023/09/18 08:20:42;;;;;;;15.07;13.57;;;24.10;50.20;;;;;;5026505;28;114877;-78
2023/09/18 08:23:10;;;;;;;15.93;13.60;;;24.10;50.30;;;;;;5007971;28;116374;-77
2023/09/18 08:25:37;;;;;;;15.20;13.60;;;24.20;50.10;;;;;;5027119;28;114287;-77
2023/09/18 08:28:06;;;;;;;15.57;13.70;;;24.30;50.10;;;;;;5009754;28;114397;-77
2023/09/18 08:30:36;;;;;;;16.23;14.57;;;24.30;49.90;;;;;;5026280;28;117135;-78
2023/09/18 08:33:04;;;;;;;15.07;13.68;;;24.50;49.50;;;;;;5026414;28;114633;-77
2023/09/18 08:35:32;;;;;;;14.38;13.00;;;24.60;49.40;;;;;;5026799;28;114433;-77
2023/09/18 08:38:00;;;;;;;15.05;13.45;;;24.70;49.00;;;;;;5026592;28;114220;-78
2023/09/18 08:40:27;;;;;;;14.55;13.15;;;24.70;49.00;;;;;;5007732;28;114919;-79
2023/09/18 08:42:55;;;;;;;15.77;13.77;;;24.80;48.80;;;;;;5008275;28;114743;-78
2023/09/18 08:45:43;;;;;;;14.85;13.40;;;24.80;48.60;;;;;;5008785;28;114553;-77
2023/09/18 08:48:10;;;;;;;15.00;13.40;;;24.80;48.50;;;;;;5026141;28;114258;-78
2023/09/18 08:50:38;;;;;;;15.75;14.15;;;24.70;48.70;;;;;;4974457;28;115124;-77
2023/09/18 08:53:05;;;;;;;17.17;13.95;;;24.70;48.80;;;;;;5025377;28;115835;-78
2023/09/18 08:55:33;;;;;;;15.60;13.57;;;24.70;48.60;;;;;;5009173;28;114367;-78
2023/09/18 08:58:01;;;;;;;14.48;13.00;;;24.70;48.70;;;;;;4991587;28;114362;-76
2023/09/18 09:00:28;;;;;;;15.38;13.77;;;24.80;48.30;;;;;;5025276;28;114922;-78
2023/09/18 09:02:55;;;;;;;14.35;13.05;;;24.80;48.20;;;;;;5025402;28;114654;-78
2023/09/18 09:05:23;;;;;;;15.27;13.02;;;24.80;48.30;;;;;;5026065;28;114364;-77
2023/09/18 09:07:50;;;;;;;15.02;13.18;;;24.80;48.20;;;;;;5007602;28;114603;-79
2023/09/18 09:10:17;;;;;;;16.20;13.55;;;24.70;48.50;;;;;;5007545;28;115154;-77
2023/09/18 09:12:58;;;;;;;14.18;12.70;;;24.80;48.40;;;;;;5025064;28;116400;-79
2023/09/18 09:15:29;;;;;;;14.45;13.05;;;24.80;48.40;;;;;;5025649;28;114180;-77
2023/09/18 09:18:07;;;;;;;13.70;12.43;;;24.80;48.00;;;;;;5008039;28;114498;-78
2023/09/18 09:20:35;;;;;;;14.50;13.10;;;24.80;48.00;;;;;;5007603;28;115132;-78
2023/09/18 09:23:04;;;;;;;14.05;12.68;;;24.80;48.10;;;;;;5007466;28;114621;-78
2023/09/18 09:25:31;;;;;;;14.40;12.95;;;24.80;47.90;;;;;;5026207;28;114289;-79
2023/09/18 09:28:06;;;;;;;13.50;12.07;;;24.70;47.90;;;;;;5007740;28;114331;-78
2023/09/18 09:30:35;;;;;;;13.57;12.02;;;24.70;47.80;;;;;;5025007;28;116388;-79
2023/09/18 09:33:04;;;;;;;13.07;11.73;;;24.70;48.00;;;;;;5025553;28;114684;-78
2023/09/18 09:35:35;;;;;;;13.05;11.85;;;24.80;47.90;;;;;;5008372;28;114253;-78
2023/09/18 09:38:09;;;;;;;13.57;12.18;;;25.00;47.80;;;;;;5026038;28;114102;-77
2023/09/18 09:40:43;;;;;;;13.98;12.57;;;25.00;47.30;;;;;;5006926;28;115324;-78
2023/09/18 09:43:11;;;;;;;;;;;25.00;47.30;;;;;;5007761;28;115907;-77
2023/09/18 09:45:38;;;;;;;13.30;12.00;;;24.90;47.60;;;;;;5026001;28;114309;-78
2023/09/18 09:48:06;;;;;;;12.80;11.50;;;24.80;47.30;;;;;;4991635;28;114559;-79
2023/09/18 09:50:47;;;;;;;12.32;11.13;;;24.80;47.20;;;;;;5007116;28;114997;-78
2023/09/18 09:53:14;;;;;;;12.73;11.40;;;24.80;47.30;;;;;;5024918;28;114673;-78
2023/09/18 09:55:41;;;;;;;13.50;12.10;;;24.70;47.50;;;;;;5025953;28;114389;-77
2023/09/18 09:58:10;;;;;;;12.80;11.60;;;24.80;47.50;;;;;;5026070;28;114362;-78
2023/09/18 10:00:49;;;;;;;13.25;11.85;;;24.80;46.90;;;;;;5007002;28;115397;-77
2023/09/18 10:03:19;;;;;;;13.15;11.75;;;24.80;46.90;;;;;;5024672;28;114657;-79
2023/09/18 10:05:47;;;;;;;13.27;11.65;;;24.80;46.80;;;;;;5007685;28;114411;-77
2023/09/18 10:08:16;;;;;;;12.88;11.55;;;24.80;47.30;;;;;;4991131;28;114295;-78
2023/09/18 10:10:50;;;;;;;14.07;11.52;;;24.80;47.20;;;;;;5027316;27;115138;-78
2023/09/18 10:13:21;;;;;;;;;;;25.00;47.10;;;;;;5014398;28;114630;-77
2023/09/18 10:15:49;;;;;;;12.32;10.18;;;25.00;47.70;;;;;;5013265;28;114263;-77
2023/09/18 10:18:40;;;;;;;11.38;10.18;;;25.20;45.90;;;;;;4978055;28;114432;-76
2023/09/18 10:21:15;;;;;;;11.85;8.90;;;25.30;44.70;;;;;;5010259;28;115028;-76
2023/09/18 10:23:59;;;;;;;11.23;8.88;;;25.30;44.50;;;;;;5028583;28;114848;-78
2023/09/18 10:26:28;;;;;;;;;;;25.20;44.60;;;;;;5030672;28;114219;-78
2023/09/18 10:28:58;;;;;;;10.52;8.98;;;25.10;45.80;;;;;;5030512;28;114300;-77
2023/09/18 10:31:28;;;;;;;12.75;10.32;;;25.20;45.00;;;;;;5010456;28;115103;-78
2023/09/18 10:33:59;;;;;;;10.25;8.88;;;25.20;45.20;;;;;;5009794;28;118211;-77
2023/09/18 10:36:26;;;;;;;11.15;9.23;;;25.20;44.60;;;;;;5029159;28;114198;-78
2023/09/18 10:38:53;;;;;;;9.98;8.75;;;25.10;44.60;;;;;;4994686;28;114360;-77
2023/09/18 10:41:21;;;;;;;11.07;9.85;;;25.00;45.30;;;;;;4977537;28;116079;-79
2023/09/18 10:43:53;;;;;;;13.25;9.35;;;25.00;45.30;;;;;;5028016;28;115259;-77
2023/09/18 10:46:20;;;;;;;9.57;8.38;;;25.10;45.30;;;;;;4994679;28;114693;-77
2023/09/18 10:48:47;;;;;;;10.45;9.00;;;25.00;45.20;;;;;;5027871;28;114260;-77
2023/09/18 10:51:14;;;;;;;10.55;9.02;;;25.00;45.10;;;;;;5009898;28;115493;-77
2023/09/18 10:53:42;;;;;;;10.27;9.15;;;25.00;45.20;;;;;;4993489;28;115752;-77
2023/09/18 10:56:09;;;;;;;12.45;9.32;;;25.00;45.50;;;;;;5010419;28;114033;-77
2023/09/18 10:58:38;;;;;;;11.27;9.65;;;25.10;45.50;;;;;;4994592;28;114287;-78
2023/09/18 11:01:05;;;;;;;9.55;8.15;;;25.10;45.60;;;;;;5010114;28;115093;-76
2023/09/18 11:03:33;;;;;;;13.00;9.50;;;25.20;45.00;;;;;;5027572;28;114640;-76
2023/09/18 11:06:05;;;;;;;10.48;9.38;;;25.30;45.40;;;;;;5028449;28;114303;-78
2023/09/18 11:08:45;;;;;;;10.13;8.23;;;25.40;45.40;;;;;;5010826;28;114299;-78
2023/09/18 11:11:14;;;;;;;9.90;8.23;;;25.60;45.00;;;;;;5027637;28;115164;-77
2023/09/18 11:13:49;;;;;;;13.13;8.50;;;25.70;44.10;;;;;;5010222;28;114780;-77
2023/09/18 11:16:26;;;;;;;8.82;7.93;;;25.80;44.00;;;;;;5010128;28;114424;-78
2023/09/18 11:19:00;;;;;;;9.95;8.90;;;25.80;43.80;;;;;;5027755;28;114755;-78
2023/09/18 11:21:28;;;;;;;9.05;7.68;;;25.90;44.00;;;;;;5026486;28;115115;-77
2023/09/18 11:23:59;;;;;;;8.55;7.68;;;26.00;43.60;;;;;;5027227;28;114687;-77
2023/09/18 11:26:35;;;;;;;9.52;8.45;;;26.10;43.20;;;;;;5028194;28;114288;-77
2023/09/18 11:29:09;;;;;;;9.45;8.50;;;26.10;43.30;;;;;;5028079;28;114150;-78
2023/09/18 11:31:43;;;;;;;9.07;7.85;;;26.10;43.20;;;;;;5009636;28;114891;-79
2023/09/18 11:34:15;;;;;;;8.70;7.78;;;26.10;42.90;;;;;;4992721;28;114736;-78
2023/09/18 11:36:42;;;;;;;9.02;8.07;;;26.10;42.50;;;;;;5027998;28;114158;-78
2023/09/18 11:39:11;;;;;;;10.48;8.07;;;26.10;42.00;;;;;;5028347;28;114426;-78
2023/09/18 11:41:39;;;;;;;10.77;8.43;;;26.10;41.80;;;;;;5009673;28;115346;-78
2023/09/18 11:44:18;;;;;;;10.75;7.97;;;26.10;41.50;;;;;;5008331;28;115334;-78
2023/09/18 11:46:54;;;;;;;9.73;7.93;;;26.10;41.80;;;;;;5027100;28;114376;-76
2023/09/18 11:49:22;;;;;;;8.77;7.72;;;26.20;41.60;;;;;;5010440;28;114345;-77
2023/09/18 11:51:50;;;;;;;9.50;7.65;;;26.20;41.20;;;;;;5007488;28;115022;-79
2023/09/18 11:54:17;;;;;;;10.38;8.38;;;26.30;40.80;;;;;;5026941;28;114711;-78
2023/09/18 11:56:45;;;;;;;10.35;7.75;;;26.20;40.90;;;;;;5009612;28;114344;-77
2023/09/18 11:59:12;;;;;;;9.00;8.10;;;26.20;40.70;;;;;;5027245;28;114151;-79
2023/09/18 12:01:40;;;;;;;10.88;7.85;;;26.20;41.10;;;;;;5010268;28;115085;-79
2023/09/18 12:04:11;;;;;;;8.13;7.32;;;26.30;41.30;;;;;;5008583;28;116447;-78
2023/09/18 12:06:39;;;;;;;9.38;7.63;;;26.30;40.50;;;;;;5027306;28;114246;-77
2023/09/18 12:09:06;;;;;;;9.25;7.63;;;26.40;40.80;;;;;;5008454;28;114456;-77
2023/09/18 12:11:35;;;;;;;10.80;7.72;;;26.40;40.10;;;;;;5008006;28;115500;-78
2023/09/18 12:14:02;;;;;;;9.25;7.45;;;26.30;40.10;;;;;;4992302;28;114971;-77
2023/09/18 12:16:29;;;;;;;8.95;7.20;;;26.30;39.90;;;;;;5009413;28;114253;-78
2023/09/18 12:19:01;;;;;;;9.98;7.22;;;26.30;39.90;;;;;;5008164;28;114551;-78
2023/09/18 12:21:29;;;;;;;8.30;7.50;;;26.30;40.10;;;;;;5026338;28;114840;-78
2023/09/18 12:23:56;;;;;;;9.05;6.72;;;26.30;40.10;;;;;;4990748;28;118091;-78
2023/09/18 12:26:25;;;;;;;9.65;7.22;;;26.30;40.00;;;;;;4992411;28;114544;-79
2023/09/18 12:28:53;;;;;;;7.88;6.90;;;26.30;39.80;;;;;;5009772;28;114229;-78
2023/09/18 12:31:21;;;;;;;8.05;6.88;;;26.30;39.90;;;;;;5006646;28;114929;-78